Latest Weather Observations for Pearce

IDW60801

Issued at 8:13 am WST Monday 16 September 2019 (issued every 10 minutes, with the page automatically refreshed every 10 minutes)

About weather observations | Map of weather stations | Latest weather observations for WA | Other Formats
Station Details ID: 009053 Name: PEARCE RAAF Lat: -31.67 Lon: 116.02 Height: 40.0 m
Data from the previous 72 hours. | See also: Recent months at Pearce
Date/Time
WST
Temp
°C
App
Temp
°C
Dew
Point
°C
Rel
Hum
%
Delta-T
°C
Wind Press
QNH
hPa
Press
MSL
hPa
Rain since
9am
mm
Dir  Spd
km/h
Gust
km/h
Spd
kts
Gust
kts
16/08:00am 16.2 9.6 8.4 60 4.0 ENE 33 54 18 29 1020.8 1020.8 0.0
16/07:30am 15.3 8.2 8.1 62 3.6 ENE 35 56 19 30 1020.9 1020.9 0.0
16/07:00am 14.6 7.9 8.1 65 3.2 ENE 33 48 18 26 1020.8 1020.8 0.0
16/06:30am 14.2 7.4 7.9 66 3.1 E 33 46 18 25 1020.9 1020.9 0.0
16/06:02am 14.2 7.2 8.4 68 2.9 E 35 54 19 29 1020.8 1020.8 0.0
16/06:00am 14.2 7.2 8.4 68 2.9 E 35 46 19 25 1020.9 1020.9 0.0
16/05:46am 14.3 7.0 8.7 69 2.8 E 37 54 20 29 1020.9 1020.9 0.0
16/05:30am 14.3 7.4 8.9 70 2.7 E 35 48 19 26 1021.0 1021.0 0.0
16/05:00am 14.4 8.3 9.6 73 2.5 E 32 46 17 25 1021.0 1021.0 0.0
16/04:30am 14.8 8.6 10.0 73 2.5 E 33 50 18 27 1021.2 1021.2 0.0
16/04:00am 15.0 8.8 10.2 73 2.5 E 33 56 18 30 1021.4 1021.4 0.0
16/03:32am 15.1 10.0 10.7 75 2.3 E 28 46 15 25 1021.5 1021.5 0.0
16/03:30am 15.2 9.8 10.8 75 2.3 E 30 46 16 25 1021.5 1021.5 0.0
16/03:01am 15.2 9.5 11.0 76 2.2 E 32 50 17 27 1021.4 1021.4 0.0
16/03:00am 15.3 9.4 11.1 76 2.2 E 33 50 18 27 1021.4 1021.4 0.0
16/02:56am 15.2 9.5 11.0 76 2.2 E 32 50 17 27 1021.5 1021.5 0.0
16/02:30am 15.5 9.3 11.5 77 2.2 E 35 52 19 28 1021.2 1021.2 0.0
16/02:00am 15.6 10.1 11.8 78 2.1 E 32 50 17 27 1021.3 1021.3 0.0
16/01:51am 15.6 10.8 11.8 78 2.1 E 28 46 15 25 1021.4 1021.4 0.0
16/01:30am 15.7 11.0 11.9 78 2.1 E 28 43 15 23 1021.4 1021.4 0.0
16/01:00am 16.1 12.1 11.7 75 2.4 E 24 41 13 22 1021.4 1021.4 0.0
16/12:30am 16.3 13.2 11.7 74 2.5 ESE 19 32 10 17 1021.5 1021.5 0.0
16/12:00am 14.1 14.5 12.5 90 0.9 SE 2 9 1 5 1021.7 1021.7 0.0
 
Date/Time
WST
Temp
°C
App
Temp
°C
Dew
Point
°C
Rel
Hum
%
Delta-T
°C
Wind Press
QNH
hPa
Press
MSL
hPa
Rain since
9am
mm
Dir  Spd
km/h
Gust
km/h
Spd
kts
Gust
kts
15/11:30pm 13.1 12.2 11.2 88 1.0 NNW 7 9 4 5 1021.9 1021.9 0.0
15/11:00pm 14.9 15.0 12.8 87 1.2 NNW 4 6 2 3 1021.6 1021.6 0.0
15/10:30pm 14.5 14.1 12.5 88 1.1 NNW 6 7 3 4 1022.2 1022.2 0.0
15/10:00pm 14.6 14.9 12.1 85 1.4 N 2 7 1 4 1022.5 1022.5 0.0
15/09:30pm 15.9 16.6 12.3 79 2.0 CALM 0 4 0 2 1022.5 1022.5 0.0
15/09:00pm 15.8 15.3 12.5 81 1.8 NNE 7 9 4 5 1022.8 1022.8 0.0
15/08:30pm 16.0 16.8 12.7 81 1.8 CALM 0 0 0 0 1023.0 1023.0 0.0
15/08:00pm 15.9 16.7 12.6 81 1.8 CALM 0 0 0 0 1023.0 1023.0 0.0
15/07:30pm 16.5 17.3 12.7 78 2.1 CALM 0 0 0 0 1022.6 1022.6 0.0
15/07:00pm 16.5 16.2 12.7 78 2.1 SSW 6 7 3 4 1022.3 1022.3 0.0
15/06:30pm 16.8 15.9 12.5 76 2.4 WSW 9 9 5 5 1022.2 1022.2 0.0
15/06:00pm 17.6 15.9 12.5 72 2.8 WSW 13 15 7 8 1022.0 1022.0 0.0
15/05:30pm 19.0 17.8 12.7 67 3.5 SW 11 15 6 8 1021.7 1021.7 0.0
15/05:00pm 19.9 18.7 12.7 63 4.1 SW 11 17 6 9 1021.7 1021.7 0.0
15/04:30pm 19.7 17.7 12.7 64 3.9 SW 15 22 8 12 1021.8 1021.8 0.0
15/04:00pm 20.3 17.5 12.5 61 4.4 SW 19 24 10 13 1021.8 1021.8 0.0
15/03:30pm 20.9 18.2 13.4 62 4.3 WSW 20 26 11 14 1021.9 1021.9 0.0
15/03:00pm 21.5 19.1 13.9 62 4.4 SW 19 28 10 15 1021.8 1021.8 0.0
15/02:30pm 22.1 21.5 11.8 52 5.8 SSW 6 17 3 9 1021.9 1021.9 0.0
15/02:00pm 22.0 20.3 11.1 50 6.0 SSW 11 19 6 10 1022.3 1022.3 0.0
15/01:30pm 22.1 20.9 11.5 51 5.9 W 9 15 5 8 1022.5 1022.5 0.0
15/01:00pm 21.5 20.1 12.1 55 5.3 SSW 11 17 6 9 1022.6 1022.6 0.0
15/12:30pm 20.8 19.3 12.0 57 4.9 SW 11 15 6 8 1023.1 1023.1 0.0
15/12:00pm 21.5 21.3 13.7 61 4.5 WNW 7 9 4 5 1023.5 1023.5 0.0
15/11:30am 20.4 19.7 12.1 59 4.6 WNW 7 11 4 6 1023.8 1023.8 0.0
15/11:00am 19.4 18.8 12.2 63 4.0 SSW 7 13 4 7 1024.0 1024.0 0.0
15/10:30am 19.2 18.3 12.7 66 3.7 SSE 9 13 5 7 1024.1 1024.1 0.0
15/10:00am 18.7 18.0 13.3 71 3.0 SSE 9 13 5 7 1024.5 1024.5 0.0
15/09:30am 18.2 17.7 13.9 76 2.5 SE 9 13 5 7 1024.6 1024.6 0.0
15/09:00am 16.7 15.6 13.2 80 2.0 S 11 17 6 9 1024.7 1024.7 0.0
15/08:30am 16.0 15.0 13.3 84 1.5 SSE 11 15 6 8 1024.8 1024.8 0.0
15/08:00am 14.8 14.1 13.3 91 0.8 SSE 9 13 5 7 1024.8 1024.8 0.0
15/07:30am 13.5 13.0 12.6 94 0.5 SW 7 9 4 5 1024.6 1024.6 0.0
15/07:00am 11.5 11.7 10.4 93 0.6 CALM 0 4 0 2 1024.2 1024.2 0.0
15/06:30am 12.6 11.7 11.5 93 0.6 NNE 7 9 4 5 1024.2 1024.2 0.0
15/06:00am 12.9 13.1 11.8 93 0.6 SE 2 6 1 3 1023.9 1023.9 0.0
15/05:30am 13.0 12.4 11.7 92 0.7 SE 6 9 3 5 1023.8 1023.8 0.0
15/05:00am 12.8 12.1 11.4 91 0.7 SSE 6 7 3 4 1023.5 1023.5 0.0
15/04:30am 13.3 12.1 11.7 90 0.9 SE 9 13 5 7 1023.2 1023.2 0.0
15/04:00am 13.7 12.2 11.9 89 1.0 SE 11 17 6 9 1023.0 1023.0 0.0
15/03:30am 13.8 12.4 12.2 90 0.9 SSE 11 13 6 7 1023.2 1023.2 0.0
15/03:00am 14.0 12.3 12.4 90 0.9 SSE 13 17 7 9 1023.1 1023.1 0.0
15/02:30am 14.3 12.7 12.9 91 0.8 SSE 13 17 7 9 1022.9 1022.9 0.0
15/02:00am 14.5 13.4 13.2 92 0.7 SE 11 15 6 8 1022.8 1022.8 0.0
15/01:30am 14.6 13.2 13.3 92 0.7 SSE 13 15 7 8 1023.2 1023.2 0.0
15/01:00am 14.6 13.1 13.1 91 0.8 SSE 13 15 7 8 1023.2 1023.2 0.0
15/12:30am 15.0 14.0 13.5 91 0.8 ESE 11 13 6 7 1023.3 1023.3 0.0
15/12:00am 15.3 14.0 13.8 91 0.8 SW 13 17 7 9 1023.3 1023.3 0.0
 
Date/Time
WST
Temp
°C
App
Temp
°C
Dew
Point
°C
Rel
Hum
%
Delta-T
°C
Wind Press
QNH
hPa
Press
MSL
hPa
Rain since
9am
mm
Dir  Spd
km/h
Gust
km/h
Spd
kts
Gust
kts
14/11:30pm 15.1 14.4 13.1 88 1.1 S 9 13 5 7 1023.0 1023.0 0.0
14/11:00pm 16.1 14.5 13.9 87 1.2 SSE 15 19 8 10 1022.9 1022.9 0.0
14/10:30pm 16.8 15.4 14.6 87 1.3 SSE 15 22 8 12 1023.1 1023.1 0.0
14/10:29pm 16.9 15.6 14.7 87 1.3 SSE 15 22 8 12 1023.1 1023.1 0.0
14/10:00pm 17.2 16.5 15.4 89 1.0 S 13 19 7 10 1023.6 1023.6 0.0
14/09:30pm 16.9 16.9 15.1 89 1.0 S 9 13 5 7 1023.9 1023.9 0.0
14/09:23pm 16.8 16.7 15.0 89 1.0 SSW 9 13 5 7 1024.0 1024.0 0.0
14/09:00pm 16.5 15.9 14.5 88 1.1 SSW 11 15 6 8 1024.0 1024.0 0.0
14/08:30pm 16.6 16.6 14.2 86 1.4 S 7 9 4 5 1023.6 1023.6 0.0
14/08:00pm 16.9 17.2 14.5 86 1.4 SSE 6 7 3 4 1023.2 1023.2 0.0
14/07:30pm 17.5 17.0 15.0 85 1.5 SSW 11 15 6 8 1022.9 1022.9 0.0
14/07:00pm 17.6 17.4 14.7 83 1.7 SW 9 13 5 7 1022.6 1022.6 0.0
14/06:30pm 18.5 17.7 15.0 80 2.0 SW 13 15 7 8 1022.3 1022.3 0.0
14/06:00pm 19.4 18.9 14.9 75 2.6 SW 11 13 6 7 1021.8 1021.8 0.0
14/05:30pm 20.7 19.7 15.5 72 3.1 SW 15 20 8 11 1021.6 1021.6 0.0
14/05:00pm 21.7 19.8 15.8 69 3.5 SW 20 24 11 13 1021.5 1021.5 0.0
14/04:30pm 22.4 21.1 16.7 70 3.5 SW 19 24 10 13 1021.4 1021.4 0.0
14/04:00pm 22.3 21.0 15.9 67 3.8 SW 17 20 9 11 1021.2 1021.2 0.0
14/03:30pm 23.3 21.8 16.4 65 4.2 SW 19 24 10 13 1021.1 1021.1 0.0
14/03:00pm 22.6 20.7 15.2 63 4.4 SW 19 22 10 12 1021.3 1021.3 0.0
14/02:30pm 23.3 21.7 16.6 66 4.1 SW 20 24 11 13 1021.4 1021.4 0.0
14/02:00pm 22.4 20.0 15.3 64 4.2 SW 22 28 12 15 1021.5 1021.5 0.0
14/01:30pm 23.3 22.3 16.6 66 4.1 SSW 17 24 9 13 1021.6 1021.6 0.0
14/01:00pm 23.2 22.4 16.0 64 4.4 SSW 15 20 8 11 1021.8 1021.8 0.0
14/12:30pm 23.0 23.2 15.8 64 4.3 SSE 9 17 5 9 1022.2 1022.2 0.0
14/12:00pm 22.5 22.2 16.5 69 3.6 S 13 19 7 10 1022.6 1022.6 0.0
14/11:30am 22.6 22.3 17.3 72 3.3 S 15 20 8 11 1022.9 1022.9 0.0
14/11:00am 22.4 22.6 16.7 70 3.5 SSE 11 19 6 10 1023.4 1023.4 0.0
14/10:30am 21.9 21.7 16.8 73 3.1 S 13 20 7 11 1023.7 1023.7 0.0
14/10:00am 20.8 20.7 16.0 74 2.9 S 11 17 6 9 1024.1 1024.1 0.0
14/09:30am 19.9 20.4 15.1 74 2.8 S 6 9 3 5 1024.0 1024.0 0.0
14/09:00am 18.5 19.8 14.2 76 2.5 CALM 0 2 0 1 1024.1 1024.1 0.0
14/08:30am 17.3 17.6 14.6 84 1.6 NNE 6 9 3 5 1023.8 1023.8 0.0
14/08:00am 14.6 15.6 13.3 92 0.7 CALM 0 0 0 0 1023.5 1023.5 0.0
14/07:30am 13.0 13.6 11.9 93 0.6 CALM 0 0 0 0 1023.2 1023.2 0.0
14/07:00am 12.3 12.6 11.0 92 0.7 CALM 0 0 0 0 1022.8 1022.8 0.0
14/06:30am 11.7 10.5 10.4 92 0.7 W 7 9 4 5 1022.6 1022.6 0.0
14/06:00am 11.9 10.7 10.3 90 0.8 N 7 11 4 6 1022.5 1022.5 0.0
14/05:30am 13.3 12.4 11.5 89 1.0 NE 7 7 4 4 1022.2 1022.2 0.0
14/05:00am 13.8 13.4 12.4 91 0.8 E 6 7 3 4 1022.4 1022.4 0.0
14/04:30am 13.7 12.7 12.4 92 0.7 NNE 9 13 5 7 1022.4 1022.4 0.0
14/04:00am 14.1 13.3 13.0 93 0.6 SSW 9 15 5 8 1021.9 1021.9 0.0
14/03:30am 13.9 13.4 12.6 92 0.7 SSE 7 9 4 5 1021.7 1021.7 0.0
14/03:00am 14.1 14.2 12.8 92 0.7 WNW 4 7 2 4 1021.2 1021.2 0.0
14/02:30am 14.1 13.6 12.8 92 0.7 N 7 11 4 6 1021.0 1021.0 0.0
14/02:00am 13.9 13.4 12.6 92 0.7 NNW 7 9 4 5 1020.9 1020.9 0.0
14/01:30am 14.3 13.5 13.0 92 0.7 N 9 13 5 7 1021.3 1021.3 0.0
14/01:00am 14.7 14.4 13.4 92 0.7 S 7 9 4 5 1021.4 1021.4 0.0
14/12:30am 14.1 13.6 12.8 92 0.7 S 7 9 4 5 1021.8 1021.8 0.0
14/12:00am 13.8 13.3 12.0 89 1.0 S 6 7 3 4 1022.2 1022.2 0.0
 
Date/Time
WST
Temp
°C
App
Temp
°C
Dew
Point
°C
Rel
Hum
%
Delta-T
°C
Wind Press
QNH
hPa
Press
MSL
hPa
Rain since
9am
mm
Dir  Spd
km/h
Gust
km/h
Spd
kts
Gust
kts
13/11:30pm 15.5 16.6 13.5 88 1.1 CALM 0 0 0 0 1022.5 1022.5 0.0
13/11:00pm 15.7 17.0 14.1 90 0.9 CALM 0 0 0 0 1022.7 1022.7 0.0
13/10:30pm 14.6 15.5 13.0 90 0.9 CALM 0 0 0 0 1022.9 1022.9 0.0
13/10:00pm 15.1 15.9 12.4 84 1.5 CALM 0 0 0 0 1022.7 1022.7 0.0
13/09:30pm 16.7 18.0 14.0 84 1.5 CALM 0 0 0 0 1022.7 1022.7 0.0
13/09:00pm 16.8 16.6 13.7 82 1.7 S 7 9 4 5 1022.9 1022.9 0.0
13/08:30pm 17.2 16.8 14.1 82 1.8 SSE 9 13 5 7 1022.8 1022.8 0.0
13/08:00pm 17.5 17.4 14.0 80 2.0 S 7 9 4 5 1022.6 1022.6 0.0
13/07:30pm 18.0 17.6 14.1 78 2.2 S 9 11 5 6 1022.3 1022.3 0.0
13/07:00pm 18.6 17.5 14.3 76 2.5 WSW 13 17 7 9 1021.8 1021.8 0.0
13/06:30pm 19.4 18.7 14.2 72 3.0 SW 11 13 6 7 1021.4 1021.4 0.0
13/06:00pm 20.9 20.4 14.8 68 3.6 SW 11 13 6 7 1021.1 1021.1 0.0
13/05:30pm 22.6 20.6 13.9 58 5.1 SW 17 20 9 11 1020.9 1020.9 0.0
13/05:00pm 24.2 22.7 13.1 50 6.4 SW 13 17 7 9 1020.9 1020.9 0.0
13/04:30pm 24.5 23.8 13.1 49 6.6 SW 9 11 5 6 1020.6 1020.6 0.0
13/04:00pm 24.6 22.9 13.5 50 6.5 WSW 15 20 8 11 1020.6 1020.6 0.0
13/03:30pm 25.2 23.4 13.4 48 6.9 W 15 19 8 10 1020.6 1020.6 0.0
13/03:00pm 25.6 23.0 13.8 48 6.9 WSW 20 28 11 15 1020.7 1020.7 0.0
13/02:30pm 27.1 26.2 14.8 47 7.4 W 13 20 7 11 1020.8 1020.8 0.0
13/02:00pm 27.4 26.0 14.4 45 7.8 W 15 24 8 13 1021.0 1021.0 0.0
13/01:30pm 26.8 27.6 15.8 51 6.7 E 6 15 3 8 1021.3 1021.3 0.0
13/01:00pm 26.0 26.0 13.5 46 7.3 SSW 6 11 3 6 1021.5 1021.5 0.0
13/12:30pm 25.7 25.9 14.2 49 6.8 WSW 6 11 3 6 1021.9 1021.9 0.0
13/12:00pm 24.3 24.5 14.1 53 6.0 ENE 6 9 3 5 1022.3 1022.3 0.0
13/11:30am 24.4 25.4 14.2 53 6.0 NE 2 7 1 4 1022.7 1022.7 0.0
13/11:00am 22.8 23.1 14.6 60 4.8 WNW 6 11 3 6 1023.1 1023.1 0.0
13/10:30am 21.6 22.5 15.0 66 3.9 SSW 4 9 2 5 1023.3 1023.3 0.0
13/10:00am 20.1 20.4 14.9 72 3.0 S 7 13 4 7 1023.6 1023.6 0.0
13/09:30am 19.2 19.3 15.5 79 2.2 S 9 13 5 7 1023.7 1023.7 0.0
13/09:00am 17.9 17.1 15.2 84 1.6 S 13 15 7 8 1024.0 1024.0 0.0
13/08:30am 16.3 15.7 14.5 89 1.0 S 11 15 6 8 1024.0 1024.0 0.0

Other formats

Comma delimited format used in spreadsheet applications
http://www.bom.gov.au/fwo/IDW60801/IDW60801.94612.axf

JavaScript Object Notation format (JSON) in row-major order
http://www.bom.gov.au/fwo/IDW60801/IDW60801.94612.json

Data quality

Most of these data are generated automatically and are frequently updated. Quality checks on data are not normally performed. It is possible for incorrect values to appear. Refer to information at About Latest Weather Observations and please check the disclaimer before using these data.